Time;durP1;ratioP1;P1;durP2;ratioP2;P2;SDS_P1;SDS_P2;PMS_P1;PMS_P2;Temp;Humidity;BMP_temperature;BMP_pressure;BME280_temperature;BME280_humidity;BME280_pressure;Samples;Min_cycle;Max_cycle;Signal;HPM_P1;HPM_P2
2021/06/22 00:00:26;;;;;;;6.80;5.80;;;17.60;64.00;;;;;;5063210;28;20182;-82
2021/06/22 00:02:52;;;;;;;9.13;6.30;;;17.50;64.30;;;;;;5062277;28;20459;-82
2021/06/22 00:05:19;;;;;;;8.90;6.93;;;17.50;64.20;;;;;;5063212;28;20894;-83
2021/06/22 00:07:46;;;;;;;7.40;6.03;;;17.40;64.60;;;;;;5044289;28;20416;-83
2021/06/22 00:10:13;;;;;;;6.80;5.80;;;17.40;64.70;;;;;;5045226;28;20432;-83
2021/06/22 00:12:39;;;;;;;6.23;4.73;;;17.40;64.80;;;;;;5063628;28;20416;-84
2021/06/22 00:15:07;;;;;;;5.47;4.67;;;17.40;64.80;;;;;;5064118;28;20431;-82
2021/06/22 00:17:33;;;;;;;6.00;4.47;;;17.40;64.70;;;;;;5065805;28;20192;-84
2021/06/22 00:19:59;;;;;;;6.40;4.47;;;17.40;64.30;;;;;;5062499;28;20511;-84
2021/06/22 00:22:25;;;;;;;5.90;3.47;;;17.30;64.30;;;;;;5063596;28;20190;-82
2021/06/22 00:24:50;;;;;;;4.00;3.60;;;17.30;63.80;;;;;;5044669;28;20181;-82
2021/06/22 00:27:17;;;;;;;10.13;3.17;;;17.30;63.90;;;;;;5061756;28;20178;-84
2021/06/22 00:29:46;;;;;;;4.47;3.43;;;17.20;63.70;;;;;;5071834;28;20182;-82
2021/06/22 00:32:12;;;;;;;3.90;3.37;;;17.20;63.70;;;;;;5070309;28;20427;-84
2021/06/22 00:34:38;;;;;;;3.40;2.80;;;17.20;63.80;;;;;;5048843;28;20809;-84
2021/06/22 00:37:04;;;;;;;4.83;3.90;;;17.20;64.10;;;;;;5063375;28;20184;-83
2021/06/22 00:39:30;;;;;;;8.00;3.97;;;17.20;64.00;;;;;;5066318;28;20448;-84
2021/06/22 00:41:56;;;;;;;4.23;3.80;;;17.20;63.90;;;;;;5069035;28;20216;-81
2021/06/22 00:44:22;;;;;;;3.33;2.90;;;17.10;64.00;;;;;;5071361;28;20436;-83
2021/06/22 00:46:47;;;;;;;4.03;3.00;;;17.10;63.90;;;;;;5051601;28;20162;-83
2021/06/22 00:49:13;;;;;;;4.00;3.50;;;17.10;63.90;;;;;;5067001;28;20190;-82
2021/06/22 00:51:43;;;;;;;5.40;3.70;;;17.00;64.30;;;;;;5067068;28;20294;-83
2021/06/22 00:54:09;;;;;;;4.57;3.30;;;16.90;64.30;;;;;;5065418;28;20420;-82
2021/06/22 00:56:39;;;;;;;4.57;3.80;;;16.90;64.80;;;;;;5065952;28;20392;-83
2021/06/22 00:59:06;;;;;;;4.30;3.43;;;16.90;65.20;;;;;;5049189;28;20526;-85
2021/06/22 01:01:32;;;;;;;4.73;3.50;;;16.80;65.30;;;;;;5065368;28;20451;-82
2021/06/22 01:03:57;;;;;;;5.77;3.90;;;16.90;65.60;;;;;;5064029;28;20412;-82
2021/06/22 01:06:24;;;;;;;4.97;3.83;;;16.80;65.20;;;;;;5048173;28;20404;-83
2021/06/22 01:09:05;;;;;;;6.07;4.50;;;16.80;65.50;;;;;;5064905;28;20519;-82
2021/06/22 01:11:33;;;;;;;6.67;4.47;;;16.80;65.50;;;;;;5064249;28;20404;-82
2021/06/22 01:13:59;;;;;;;3.97;3.50;;;16.80;65.70;;;;;;5047983;28;20409;-82
2021/06/22 01:16:26;;;;;;;3.30;2.63;;;16.80;65.90;;;;;;5047715;28;20408;-83
2021/06/22 01:19:04;;;;;;;5.07;3.40;;;16.90;65.60;;;;;;5048254;28;20416;-82
2021/06/22 01:21:53;;;;;;;3.83;2.93;;;16.90;65.30;;;;;;5065487;28;20460;-82
2021/06/22 01:24:40;;;;;;;5.10;3.17;;;16.80;65.30;;;;;;5051163;28;20940;-81
2021/06/22 01:27:07;;;;;;;2.73;2.30;;;16.80;66.30;;;;;;5046835;28;20424;-80
2021/06/22 01:29:33;;;;;;;3.87;2.60;;;16.90;65.60;;;;;;5064035;28;20189;-84
2021/06/22 01:31:59;;;;;;;5.53;3.57;;;16.90;65.40;;;;;;5047139;28;20420;-83
2021/06/22 01:34:28;;;;;;;3.50;2.93;;;16.80;65.00;;;;;;5063614;28;20646;-83
2021/06/22 01:36:55;;;;;;;4.07;2.73;;;16.80;65.20;;;;;;5048312;28;20420;-82
2021/06/22 01:39:24;;;;;;;3.60;2.37;;;16.90;65.20;;;;;;5053060;28;20432;-82
2021/06/22 01:41:50;;;;;;;3.20;2.30;;;16.80;64.80;;;;;;5056346;28;20462;-82
2021/06/22 01:44:16;;;;;;;2.20;1.90;;;16.90;64.80;;;;;;5042888;28;20531;-82
2021/06/22 01:46:43;;;;;;;2.53;2.10;;;16.80;64.60;;;;;;5057121;28;20921;-82
2021/06/22 01:49:09;;;;;;;4.27;1.53;;;16.80;64.70;;;;;;5056716;28;20438;-81
2021/06/22 01:51:41;;;;;;;2.57;1.70;;;16.80;64.90;;;;;;5058115;28;20145;-82
2021/06/22 01:54:07;;;;;;;3.80;2.23;;;16.80;64.80;;;;;;5041791;28;20428;-82
2021/06/22 01:56:34;;;;;;;2.50;1.90;;;16.80;64.70;;;;;;5057155;28;20868;-83
2021/06/22 01:59:03;;;;;;;6.93;2.20;;;16.80;64.80;;;;;;5043286;28;20407;-82
2021/06/22 02:01:47;;;;;;;2.23;1.90;;;16.70;64.60;;;;;;5061536;28;20523;-83
2021/06/22 02:04:27;;;;;;;2.80;1.60;;;16.70;64.80;;;;;;5050405;28;20408;-82
2021/06/22 02:06:57;;;;;;;1.80;1.30;;;16.60;64.90;;;;;;5063488;28;20423;-83
2021/06/22 02:09:41;;;;;;;6.20;2.40;;;16.60;65.10;;;;;;5070020;28;20419;-82
2021/06/22 02:12:13;;;;;;;2.23;1.60;;;16.50;65.00;;;;;;5051944;28;20424;-82
2021/06/22 02:14:38;;;;;;;5.80;2.27;;;16.50;65.20;;;;;;5069230;28;20407;-82
2021/06/22 02:17:04;;;;;;;4.73;4.20;;;16.50;65.60;;;;;;5070139;28;20169;-82
2021/06/22 02:19:30;;;;;;;5.57;2.50;;;16.50;65.90;;;;;;5050802;28;20195;-82
2021/06/22 02:21:59;;;;;;;3.13;2.17;;;16.50;65.80;;;;;;5048468;28;20202;-82
2021/06/22 02:24:40;;;;;;;4.03;2.60;;;16.50;66.10;;;;;;5050255;28;20404;-83
2021/06/22 02:27:06;;;;;;;3.90;2.27;;;16.50;66.50;;;;;;5064964;28;20527;-82
2021/06/22 02:29:32;;;;;;;3.10;2.30;;;16.50;66.40;;;;;;5054238;28;21027;-81
2021/06/22 02:31:58;;;;;;;5.50;4.20;;;16.50;66.70;;;;;;5057212;28;20519;-84
2021/06/22 02:34:24;;;;;;;9.37;5.27;;;16.50;66.40;;;;;;5057954;28;20478;-82
2021/06/22 02:36:50;;;;;;;8.07;5.10;;;16.50;66.70;;;;;;5058054;28;20197;-83
2021/06/22 02:39:35;;;;;;;;;;;;;;;;;;;;;
2021/06/22 02:41:54;;;;;;;9.80;6.27;;;16.50;67.00;;;;;;5058429;28;21016;-78
2021/06/22 02:44:23;;;;;;;9.50;6.50;;;16.50;67.10;;;;;;5059956;28;20404;-80
2021/06/22 02:46:50;;;;;;;12.03;6.73;;;16.40;67.20;;;;;;5059106;28;20436;-81
2021/06/22 02:49:16;;;;;;;14.13;7.37;;;16.40;67.40;;;;;;5059504;28;20415;-80
2021/06/22 02:51:43;;;;;;;12.70;7.53;;;16.40;67.10;;;;;;5042360;28;20412;-79
2021/06/22 02:54:09;;;;;;;14.13;8.23;;;16.40;67.60;;;;;;5041571;28;20469;-80
2021/06/22 02:56:36;;;;;;;11.53;7.47;;;16.40;67.60;;;;;;5059086;28;20436;-80
2021/06/22 02:59:04;;;;;;;13.23;7.43;;;16.30;68.10;;;;;;5043880;28;20209;-81
2021/06/22 03:01:31;;;;;;;12.67;8.13;;;16.30;68.40;;;;;;5060913;28;20478;-77
2021/06/22 03:03:59;;;;;;;12.60;7.70;;;16.30;68.20;;;;;;5063390;28;20408;-80
2021/06/22 03:06:25;;;;;;;14.80;9.23;;;16.20;68.40;;;;;;5045084;28;20440;-79
2021/06/22 03:08:56;;;;;;;13.13;7.20;;;16.20;68.70;;;;;;5043691;28;20481;-79
2021/06/22 03:11:33;;;;;;;12.20;7.03;;;16.20;68.80;;;;;;5042969;28;20475;-79
2021/06/22 03:14:02;;;;;;;10.10;6.40;;;16.20;68.90;;;;;;5059765;28;20504;-79
2021/06/22 03:16:35;;;;;;;11.30;7.23;;;16.20;69.00;;;;;;5058134;28;20436;-80
2021/06/22 03:19:02;;;;;;;11.43;7.53;;;16.10;68.80;;;;;;5042393;28;20466;-79
2021/06/22 03:21:33;;;;;;;11.20;6.90;;;16.10;69.10;;;;;;5060563;28;20523;-80
2021/06/22 03:23:58;;;;;;;12.23;7.37;;;16.00;69.50;;;;;;5061612;28;20448;-79
2021/06/22 03:26:24;;;;;;;12.73;7.53;;;16.00;69.60;;;;;;5063172;28;20183;-79
2021/06/22 03:28:51;;;;;;;9.27;7.07;;;15.90;69.80;;;;;;5061814;28;20158;-80
2021/06/22 03:31:42;;;;;;;10.47;6.60;;;15.90;69.70;;;;;;5060130;28;20264;-79
2021/06/22 03:34:08;;;;;;;10.77;7.10;;;15.80;69.90;;;;;;5046731;28;20429;-80
2021/06/22 03:36:34;;;;;;;12.00;6.83;;;15.80;70.30;;;;;;5059169;28;20315;-79
2021/06/22 03:39:01;;;;;;;13.57;7.70;;;15.80;70.10;;;;;;5057541;28;20189;-79
2021/06/22 03:41:30;;;;;;;11.67;6.10;;;15.80;70.00;;;;;;5059627;28;20459;-80
2021/06/22 03:43:57;;;;;;;9.77;6.10;;;15.80;69.70;;;;;;5068335;28;20419;-79
2021/06/22 03:46:23;;;;;;;11.50;6.10;;;15.80;69.60;;;;;;5067685;28;20427;-81
2021/06/22 03:48:49;;;;;;;7.40;5.20;;;15.80;69.40;;;;;;5068195;28;20397;-79
2021/06/22 03:51:15;;;;;;;7.00;5.10;;;15.70;69.80;;;;;;5061401;28;20397;-80
2021/06/22 03:53:43;;;;;;;7.67;5.30;;;15.70;70.30;;;;;;5058381;28;20445;-79
2021/06/22 03:56:10;;;;;;;7.77;5.63;;;15.70;70.00;;;;;;5058582;28;20968;-80
2021/06/22 03:59:01;;;;;;;11.03;5.23;;;15.70;69.90;;;;;;5056280;28;20508;-80
2021/06/22 04:01:27;;;;;;;6.23;4.47;;;15.70;69.90;;;;;;5056789;28;20452;-81
2021/06/22 04:03:53;;;;;;;5.80;4.37;;;15.80;69.70;;;;;;5058866;28;20416;-79
2021/06/22 04:06:30;;;;;;;6.57;4.33;;;15.80;69.50;;;;;;5062799;28;20215;-79
2021/06/22 04:09:00;;;;;;;8.83;4.63;;;15.90;69.40;;;;;;5048537;28;20518;-78
2021/06/22 04:11:26;;;;;;;5.50;3.70;;;15.90;68.90;;;;;;5068509;28;20418;-80
2021/06/22 04:13:56;;;;;;;6.87;4.10;;;15.90;68.70;;;;;;5073149;28;20439;-78
2021/06/22 04:16:22;;;;;;;10.13;5.60;;;15.90;68.70;;;;;;5054081;28;20820;-80
2021/06/22 04:18:48;;;;;;;13.97;7.40;;;16.00;68.80;;;;;;5062186;28;20498;-78
2021/06/22 04:21:21;;;;;;;14.63;9.07;;;16.00;68.90;;;;;;5057637;28;20171;-83
2021/06/22 04:23:49;;;;;;;14.40;8.43;;;16.00;68.80;;;;;;5059853;28;20396;-79
2021/06/22 04:26:17;;;;;;;13.27;8.33;;;16.00;68.90;;;;;;5064555;28;20984;-81
2021/06/22 04:28:44;;;;;;;12.90;8.50;;;15.90;69.10;;;;;;5043154;28;20517;-78
2021/06/22 04:31:10;;;;;;;14.67;7.43;;;15.90;69.30;;;;;;5062172;28;20985;-80
2021/06/22 04:33:36;;;;;;;11.33;6.77;;;15.90;69.00;;;;;;5061645;28;20403;-79
2021/06/22 04:36:01;;;;;;;15.13;6.93;;;15.90;68.70;;;;;;5057886;28;20435;-81
2021/06/22 04:38:28;;;;;;;7.77;6.17;;;15.90;69.20;;;;;;5045437;28;20467;-81
2021/06/22 04:40:54;;;;;;;7.53;5.07;;;15.90;68.80;;;;;;5060046;28;20208;-80
2021/06/22 04:43:20;;;;;;;7.37;4.50;;;15.80;68.40;;;;;;5042672;28;20484;-79
2021/06/22 04:45:46;;;;;;;6.17;4.10;;;15.80;68.60;;;;;;5075401;28;20447;-81
2021/06/22 04:48:12;;;;;;;6.33;3.73;;;15.80;68.30;;;;;;5059360;28;20232;-80
2021/06/22 04:50:38;;;;;;;3.70;2.87;;;15.80;68.40;;;;;;5075380;28;20224;-81
2021/06/22 04:53:04;;;;;;;4.50;2.80;;;15.80;68.10;;;;;;5042384;28;20416;-82
2021/06/22 04:55:30;;;;;;;3.30;2.43;;;15.80;68.40;;;;;;5057384;28;20432;-80
2021/06/22 04:57:59;;;;;;;4.63;2.90;;;15.80;68.10;;;;;;5051194;28;20167;-81
2021/06/22 05:00:27;;;;;;;6.77;2.70;;;15.80;68.40;;;;;;5041557;28;20273;-81
2021/06/22 05:02:53;;;;;;;4.80;2.80;;;15.80;68.20;;;;;;5041876;28;20459;-80
2021/06/22 05:05:19;;;;;;;5.83;2.60;;;15.80;68.60;;;;;;5054187;28;20456;-79
2021/06/22 05:07:45;;;;;;;5.30;2.50;;;15.80;68.90;;;;;;5060647;28;20201;-78
2021/06/22 05:10:12;;;;;;;5.47;2.60;;;15.90;69.10;;;;;;5064599;28;20399;-78
2021/06/22 05:12:41;;;;;;;3.83;2.30;;;15.90;68.70;;;;;;5066189;28;20253;-81
2021/06/22 05:15:10;;;;;;;4.83;2.30;;;15.90;68.90;;;;;;5065169;28;20440;-76
2021/06/22 05:17:37;;;;;;;5.20;3.00;;;15.90;69.90;;;;;;5038626;28;20822;-76
2021/06/22 05:20:07;;;;;;;3.70;2.30;;;15.90;69.00;;;;;;5052040;28;20416;-76
2021/06/22 05:22:36;;;;;;;3.50;2.07;;;15.90;69.30;;;;;;5051917;28;20979;-75
2021/06/22 05:25:06;;;;;;;3.70;2.30;;;15.90;69.50;;;;;;5044263;28;20980;-77
2021/06/22 05:27:32;;;;;;;3.53;2.40;;;15.90;69.60;;;;;;5010825;28;20550;-76
2021/06/22 05:29:58;;;;;;;4.37;2.30;;;15.90;69.40;;;;;;5047674;28;20504;-77
2021/06/22 05:32:24;;;;;;;3.13;2.30;;;15.90;69.50;;;;;;5047878;28;20245;-75
2021/06/22 05:34:50;;;;;;;4.83;2.00;;;16.00;69.50;;;;;;5063929;28;20260;-75
2021/06/22 05:37:19;;;;;;;4.33;2.60;;;16.00;69.50;;;;;;5051436;28;20491;-76
2021/06/22 05:39:45;;;;;;;5.63;2.90;;;16.00;70.50;;;;;;5046016;28;20240;-75
2021/06/22 05:42:11;;;;;;;6.03;2.70;;;16.00;70.10;;;;;;5032235;28;20933;-75
2021/06/22 05:44:44;;;;;;;4.10;2.63;;;16.00;69.20;;;;;;5031432;28;20448;-75
2021/06/22 05:47:10;;;;;;;3.37;2.33;;;16.00;69.50;;;;;;5031064;28;20189;-76
2021/06/22 05:49:36;;;;;;;4.87;3.20;;;16.00;70.00;;;;;;5043525;28;21219;-76
2021/06/22 05:52:05;;;;;;;7.33;3.70;;;16.00;71.00;;;;;;5033658;28;20479;-76
2021/06/22 05:54:31;;;;;;;11.30;5.87;;;16.00;71.40;;;;;;5048562;28;20435;-76
2021/06/22 05:56:57;;;;;;;8.13;4.73;;;16.00;71.90;;;;;;5041840;28;20456;-76
2021/06/22 05:59:25;;;;;;;7.10;3.47;;;15.90;72.70;;;;;;5031585;28;20167;-76
2021/06/22 06:01:54;;;;;;;9.30;3.73;;;16.00;72.80;;;;;;5015562;28;20285;-77
2021/06/22 06:04:28;;;;;;;5.57;3.33;;;15.90;73.30;;;;;;5051220;28;20427;-75
2021/06/22 06:06:55;;;;;;;7.00;3.80;;;15.90;73.50;;;;;;5053168;28;20428;-76
2021/06/22 06:09:21;;;;;;;5.63;3.67;;;15.90;74.50;;;;;;5035550;28;20420;-76
2021/06/22 06:11:53;;;;;;;5.07;3.40;;;15.90;75.10;;;;;;5035653;28;20513;-77
2021/06/22 06:14:19;;;;;;;9.30;4.07;;;15.80;74.00;;;;;;5033521;28;20774;-76
2021/06/22 06:16:55;;;;;;;6.30;3.93;;;15.90;74.20;;;;;;5031547;28;21181;-77
2021/06/22 06:19:21;;;;;;;7.20;4.00;;;15.90;72.90;;;;;;5016181;28;20440;-77
2021/06/22 06:21:48;;;;;;;8.37;4.00;;;15.80;73.10;;;;;;5032431;28;20641;-76
2021/06/22 06:24:14;;;;;;;5.30;3.40;;;15.80;73.50;;;;;;5034308;28;20166;-75
2021/06/22 06:26:58;;;;;;;10.03;3.57;;;15.70;73.00;;;;;;5013502;28;20752;-75
2021/06/22 06:31:52;;;;;;;4.10;3.37;;;15.60;73.00;;;;;;5011347;28;20423;-76
2021/06/22 06:34:18;;;;;;;6.53;3.00;;;15.70;73.30;;;;;;5012437;28;20425;-76
2021/06/22 06:36:44;;;;;;;4.23;3.20;;;15.70;73.20;;;;;;5013048;28;20265;-76
2021/06/22 06:39:10;;;;;;;5.23;3.40;;;15.80;73.00;;;;;;5013699;28;20438;-76
2021/06/22 06:41:38;;;;;;;5.17;3.23;;;15.80;73.30;;;;;;5013010;28;20191;-76
2021/06/22 06:44:04;;;;;;;7.33;2.90;;;15.80;72.60;;;;;;5011198;28;20221;-75
2021/06/22 06:46:33;;;;;;;6.90;3.20;;;15.90;73.10;;;;;;5010931;28;20868;-76
2021/06/22 06:48:58;;;;;;;5.10;3.20;;;15.90;74.40;;;;;;5011805;28;20167;-76
2021/06/22 06:51:24;;;;;;;3.13;2.60;;;16.00;74.10;;;;;;5019515;28;20417;-77
2021/06/22 06:53:54;;;;;;;6.53;3.40;;;16.00;74.20;;;;;;5028699;28;20189;-78
2021/06/22 06:56:22;;;;;;;6.30;3.20;;;16.10;74.40;;;;;;5018125;28;20191;-79
2021/06/22 06:58:47;;;;;;;4.60;3.00;;;16.20;74.50;;;;;;5036396;28;20902;-77
2021/06/22 07:01:16;;;;;;;4.73;3.00;;;16.30;74.10;;;;;;5040648;28;20414;-78
2021/06/22 07:03:44;;;;;;;3.37;2.80;;;16.30;73.90;;;;;;5039466;28;20233;-77
2021/06/22 07:06:14;;;;;;;6.80;3.60;;;16.40;73.50;;;;;;5042045;28;20432;-78
2021/06/22 07:08:40;;;;;;;12.03;3.77;;;16.40;73.70;;;;;;5045424;28;20948;-79
2021/06/22 07:11:08;;;;;;;10.80;3.77;;;16.40;74.10;;;;;;5010689;28;20947;-77
2021/06/22 07:13:34;;;;;;;5.90;4.03;;;16.40;73.70;;;;;;5015037;28;20413;-79
2021/06/22 07:16:00;;;;;;;11.83;5.20;;;16.40;73.70;;;;;;5039849;28;20455;-78
2021/06/22 07:18:29;;;;;;;15.47;5.07;;;16.30;74.70;;;;;;5027064;28;20206;-78
2021/06/22 07:20:59;;;;;;;8.30;4.27;;;16.40;74.80;;;;;;5021785;28;20174;-79
2021/06/22 07:23:25;;;;;;;6.73;4.97;;;16.40;74.00;;;;;;5032107;28;20462;-77
2021/06/22 07:25:57;;;;;;;10.53;4.97;;;16.40;73.40;;;;;;5039581;28;20425;-78
2021/06/22 07:28:25;;;;;;;8.50;5.13;;;16.50;73.00;;;;;;5041414;28;20422;-78
2021/06/22 07:30:51;;;;;;;6.40;4.47;;;16.50;73.40;;;;;;5041061;28;20475;-80
2021/06/22 07:33:20;;;;;;;8.03;4.30;;;16.60;73.60;;;;;;5045735;28;20409;-78
2021/06/22 07:35:49;;;;;;;16.67;4.17;;;16.60;72.50;;;;;;5040435;28;20194;-78
2021/06/22 07:38:15;;;;;;;6.00;5.03;;;16.60;73.00;;;;;;5021964;28;20469;-78
2021/06/22 07:40:44;;;;;;;7.43;4.73;;;16.70;72.40;;;;;;5040338;28;20436;-78
2021/06/22 07:43:10;;;;;;;4.63;4.03;;;16.70;73.10;;;;;;5032666;28;20476;-77
2021/06/22 07:45:38;;;;;;;5.40;4.00;;;16.70;73.40;;;;;;5039509;28;20942;-80
2021/06/22 07:48:04;;;;;;;6.90;4.27;;;16.80;73.00;;;;;;5044535;28;20196;-78
2021/06/22 07:50:30;;;;;;;5.10;4.10;;;16.90;72.30;;;;;;5045469;28;20425;-78
2021/06/22 07:52:56;;;;;;;8.60;3.80;;;17.00;71.60;;;;;;5041499;28;20421;-77
2021/06/22 07:55:25;;;;;;;10.23;4.27;;;17.00;70.20;;;;;;5028999;28;20579;-79
2021/06/22 07:57:51;;;;;;;8.13;3.60;;;17.10;70.10;;;;;;5024509;28;20171;-78
2021/06/22 08:00:45;;;;;;;6.10;3.10;;;17.10;70.20;;;;;;5040436;28;20428;-79
2021/06/22 08:03:11;;;;;;;14.37;3.40;;;17.20;70.50;;;;;;5040149;28;20456;-79
2021/06/22 08:05:37;;;;;;;7.17;3.10;;;17.20;69.30;;;;;;5041695;28;20456;-78
2021/06/22 08:08:03;;;;;;;5.00;3.17;;;17.30;69.50;;;;;;5042979;28;20961;-78
2021/06/22 08:10:29;;;;;;;3.60;2.60;;;17.20;68.20;;;;;;5036284;28;20587;-77
2021/06/22 08:12:57;;;;;;;5.23;2.90;;;17.30;67.20;;;;;;5042030;28;20405;-79
2021/06/22 08:15:30;;;;;;;4.17;2.73;;;17.20;67.60;;;;;;5043324;28;20162;-80
2021/06/22 08:18:17;;;;;;;5.33;3.33;;;17.30;67.60;;;;;;5060298;28;20420;-79
2021/06/22 08:20:52;;;;;;;5.87;2.30;;;17.30;68.50;;;;;;5024576;28;20432;-80
2021/06/22 08:23:23;;;;;;;5.43;2.67;;;17.40;67.90;;;;;;5024888;28;20453;-78
2021/06/22 08:25:52;;;;;;;14.40;2.87;;;17.40;67.50;;;;;;5030774;28;20452;-77
2021/06/22 08:28:21;;;;;;;4.90;2.63;;;17.60;68.30;;;;;;5037316;28;20875;-78
2021/06/22 08:30:52;;;;;;;5.33;3.83;;;17.80;67.50;;;;;;5027987;28;20417;-77
2021/06/22 08:33:23;;;;;;;7.03;3.60;;;17.90;66.00;;;;;;5043318;28;20446;-78
2021/06/22 08:35:49;;;;;;;6.47;3.93;;;17.90;65.70;;;;;;5026709;28;20456;-78
2021/06/22 08:38:17;;;;;;;4.30;3.17;;;17.90;66.00;;;;;;5026403;28;20426;-79
2021/06/22 08:40:51;;;;;;;4.33;3.50;;;18.00;65.10;;;;;;5023570;28;20461;-78
2021/06/22 08:43:17;;;;;;;4.17;3.10;;;18.00;64.80;;;;;;5043367;28;20221;-78
2021/06/22 08:45:44;;;;;;;5.27;3.77;;;17.90;64.20;;;;;;5041187;28;20443;-77
2021/06/22 08:48:11;;;;;;;8.03;3.27;;;17.80;64.60;;;;;;5021854;28;20726;-79
2021/06/22 08:50:39;;;;;;;9.03;3.17;;;17.80;65.50;;;;;;5007200;28;20426;-78
2021/06/22 08:53:06;;;;;;;5.33;3.73;;;17.80;65.60;;;;;;5029680;28;20417;-78
2021/06/22 08:55:33;;;;;;;4.80;3.90;;;17.80;65.00;;;;;;4996893;28;20410;-77
2021/06/22 08:58:05;;;;;;;5.20;3.43;;;17.80;64.00;;;;;;5022641;28;20418;-76
2021/06/22 09:00:35;;;;;;;4.70;3.40;;;17.80;65.00;;;;;;5015998;28;20477;-76
2021/06/22 09:03:06;;;;;;;5.67;3.10;;;17.80;65.40;;;;;;5016976;28;20449;-75
2021/06/22 09:05:32;;;;;;;5.40;3.40;;;17.80;64.50;;;;;;5024025;28;20417;-75
2021/06/22 09:07:58;;;;;;;7.90;3.17;;;17.70;64.30;;;;;;5034137;28;20409;-76
2021/06/22 09:10:33;;;;;;;4.27;3.10;;;17.70;64.10;;;;;;5034785;28;20427;-75
2021/06/22 09:13:17;;;;;;;4.10;3.20;;;17.70;63.40;;;;;;5040383;28;20173;-76
2021/06/22 09:15:46;;;;;;;4.53;3.27;;;17.70;63.40;;;;;;5036617;28;20460;-77
2021/06/22 09:18:34;;;;;;;6.17;3.40;;;17.50;64.10;;;;;;5030682;28;20838;-78
2021/06/22 09:21:03;;;;;;;3.70;2.60;;;17.50;63.10;;;;;;5024696;28;20421;-77
2021/06/22 09:23:32;;;;;;;3.73;2.53;;;17.30;63.30;;;;;;5021298;28;21027;-78
2021/06/22 09:25:58;;;;;;;5.50;2.90;;;17.20;63.00;;;;;;5043804;28;20463;-78
2021/06/22 09:28:29;;;;;;;3.57;2.53;;;17.10;63.50;;;;;;5045703;28;20425;-76
2021/06/22 09:31:06;;;;;;;3.57;2.90;;;17.00;63.90;;;;;;5051408;28;20417;-77
2021/06/22 09:33:41;;;;;;;4.33;2.67;;;17.00;64.70;;;;;;5035303;28;20425;-76
2021/06/22 09:36:09;;;;;;;2.97;2.30;;;17.20;66.10;;;;;;5030278;28;20453;-76
2021/06/22 09:38:37;;;;;;;4.40;2.67;;;17.30;63.50;;;;;;5017191;28;20426;-77
2021/06/22 09:41:13;;;;;;;7.27;2.40;;;17.30;63.10;;;;;;5016550;28;20938;-77
2021/06/22 09:43:42;;;;;;;4.80;2.80;;;17.30;63.80;;;;;;5016260;28;20457;-76
2021/06/22 09:46:08;;;;;;;4.23;2.53;;;17.50;62.80;;;;;;5027345;28;20486;-76
2021/06/22 09:49:01;;;;;;;2.50;2.20;;;17.60;62.30;;;;;;5035624;28;20476;-76
2021/06/22 09:51:31;;;;;;;3.57;2.87;;;17.60;62.40;;;;;;5027815;28;20476;-75
2021/06/22 09:54:15;;;;;;;3.63;3.20;;;17.60;63.20;;;;;;5032278;28;20421;-77
2021/06/22 09:57:26;;;;;;;6.10;3.00;;;17.50;63.30;;;;;;5033151;28;20424;-76
2021/06/22 10:00:34;;;;;;;7.23;2.83;;;17.50;63.50;;;;;;5033147;28;20409;-75
2021/06/22 10:02:59;;;;;;;4.50;3.20;;;17.70;63.30;;;;;;5037262;28;20989;-76
2021/06/22 10:05:28;;;;;;;3.87;2.40;;;17.90;62.50;;;;;;5035685;28;20445;-78
2021/06/22 10:08:08;;;;;;;7.00;3.53;;;18.20;61.30;;;;;;5032324;28;20490;-77
2021/06/22 10:10:41;;;;;;;4.67;3.17;;;18.30;60.80;;;;;;5019444;28;20486;-78
2021/06/22 10:13:11;;;;;;;7.60;3.67;;;18.30;61.10;;;;;;5032797;28;20422;-77
2021/06/22 10:15:37;;;;;;;7.27;4.07;;;18.10;61.70;;;;;;5029590;28;20440;-79
2021/06/22 10:18:05;;;;;;;4.27;3.37;;;18.20;62.60;;;;;;5040000;28;20829;-79
2021/06/22 10:20:31;;;;;;;5.23;3.07;;;18.70;59.70;;;;;;5043064;28;20420;-78
2021/06/22 10:23:03;;;;;;;6.63;3.10;;;19.30;59.00;;;;;;5039174;28;20613;-78
2021/06/22 10:25:29;;;;;;;6.47;3.10;;;19.60;57.20;;;;;;5004516;28;20247;-78
2021/06/22 10:27:58;;;;;;;3.93;3.00;;;19.80;56.90;;;;;;5027735;28;20426;-78
2021/06/22 10:30:26;;;;;;;10.10;3.47;;;20.40;55.70;;;;;;5026713;28;20175;-77
2021/06/22 10:32:52;;;;;;;5.23;2.60;;;21.00;54.10;;;;;;5037471;28;20427;-79
2021/06/22 10:35:21;;;;;;;5.07;3.10;;;21.40;53.00;;;;;;5021511;28;20422;-76
2021/06/22 10:37:58;;;;;;;3.50;2.70;;;22.40;51.10;;;;;;5012178;28;20449;-78
2021/06/22 10:40:41;;;;;;;5.77;2.70;;;23.40;49.10;;;;;;5029770;28;20488;-80
2021/06/22 10:43:15;;;;;;;7.03;4.07;;;24.20;47.40;;;;;;5049711;28;20475;-78
2021/06/22 10:45:54;;;;;;;6.17;3.30;;;23.90;46.50;;;;;;5033781;28;20440;-77
2021/06/22 10:48:22;;;;;;;3.30;2.60;;;23.30;46.40;;;;;;5035133;28;20417;-77
2021/06/22 10:50:48;;;;;;;3.60;2.60;;;22.60;47.70;;;;;;5037082;28;20415;-78
2021/06/22 10:53:14;;;;;;;7.33;2.67;;;21.90;48.90;;;;;;5021153;28;20448;-77
2021/06/22 10:55:49;;;;;;;4.60;3.23;;;21.30;50.10;;;;;;5028032;28;20257;-77
2021/06/22 10:58:17;;;;;;;3.20;2.60;;;20.70;51.60;;;;;;5037768;28;20177;-77
2021/06/22 11:00:43;;;;;;;7.50;3.27;;;20.50;52.50;;;;;;5036414;28;20421;-77
2021/06/22 11:03:32;;;;;;;6.03;2.83;;;20.40;53.10;;;;;;5032318;28;20453;-78
2021/06/22 11:06:10;;;;;;;3.10;2.73;;;20.30;53.20;;;;;;5015953;28;20432;-78
2021/06/22 11:08:41;;;;;;;5.47;3.60;;;20.30;53.30;;;;;;5035356;28;20411;-78
2021/06/22 11:11:07;;;;;;;3.80;3.03;;;20.40;53.40;;;;;;5030075;28;20440;-76
2021/06/22 11:13:54;;;;;;;3.87;2.83;;;20.60;52.90;;;;;;5035336;28;20784;-76
2021/06/22 11:16:20;;;;;;;4.20;2.50;;;20.60;52.50;;;;;;5010190;28;20202;-78
2021/06/22 11:19:09;;;;;;;5.97;3.00;;;20.40;53.20;;;;;;5020756;28;20418;-77
2021/06/22 11:21:58;;;;;;;3.47;2.53;;;20.30;53.00;;;;;;5026568;28;20232;-77
2021/06/22 11:24:29;;;;;;;5.63;2.93;;;20.10;53.30;;;;;;5007639;28;20429;-78
2021/06/22 11:26:58;;;;;;;8.57;2.90;;;19.90;53.90;;;;;;5020456;28;20473;-77
2021/06/22 11:29:43;;;;;;;6.50;3.37;;;19.70;54.50;;;;;;5014828;28;20757;-78
2021/06/22 11:32:09;;;;;;;4.47;2.80;;;19.60;55.70;;;;;;5024955;28;20428;-77
2021/06/22 11:34:55;;;;;;;5.80;2.90;;;19.60;55.20;;;;;;5033646;28;20457;-77
2021/06/22 11:37:23;;;;;;;6.03;3.03;;;19.60;55.10;;;;;;5025524;28;20183;-76
2021/06/22 11:40:06;;;;;;;4.73;2.83;;;19.60;55.60;;;;;;5024463;28;20453;-77
2021/06/22 11:42:36;;;;;;;7.20;3.37;;;19.70;55.30;;;;;;5031058;28;20504;-76
2021/06/22 11:45:14;;;;;;;5.23;2.87;;;19.70;55.60;;;;;;5027494;28;20488;-77
2021/06/22 11:47:39;;;;;;;8.07;3.90;;;19.60;54.90;;;;;;5034568;28;20436;-78
2021/06/22 11:50:11;;;;;;;7.80;3.37;;;19.40;55.00;;;;;;5038279;28;20402;-78
2021/06/22 11:52:39;;;;;;;6.33;3.43;;;19.20;54.90;;;;;;5037981;28;20209;-80
2021/06/22 11:55:19;;;;;;;4.83;3.20;;;19.00;56.40;;;;;;5040636;28;20472;-80
2021/06/22 11:57:58;;;;;;;5.20;3.53;;;18.90;56.90;;;;;;5037142;28;20797;-79
2021/06/22 12:00:34;;;;;;;6.60;3.27;;;18.70;57.50;;;;;;5031940;28;20420;-78
2021/06/22 12:03:08;;;;;;;5.30;3.90;;;18.70;57.90;;;;;;5035064;28;20452;-79
2021/06/22 12:05:36;;;;;;;7.47;3.33;;;18.70;58.20;;;;;;5036131;28;20448;-78
2021/06/22 12:08:08;;;;;;;5.50;3.90;;;18.60;58.30;;;;;;5036595;28;20405;-79
2021/06/22 12:10:42;;;;;;;5.90;3.63;;;18.50;58.70;;;;;;5033691;28;20452;-79
2021/06/22 12:13:10;;;;;;;7.50;3.70;;;18.40;58.90;;;;;;5030610;28;20417;-79
2021/06/22 12:15:39;;;;;;;4.17;3.57;;;18.40;58.80;;;;;;5033007;28;20447;-78
2021/06/22 12:18:05;;;;;;;9.00;4.10;;;18.50;58.90;;;;;;5031897;28;20440;-79
2021/06/22 12:20:35;;;;;;;5.67;3.43;;;18.70;58.80;;;;;;5045380;28;20401;-77
2021/06/22 12:23:09;;;;;;;6.50;4.00;;;18.90;57.90;;;;;;5046416;28;20194;-78
2021/06/22 12:25:58;;;;;;;6.43;3.20;;;19.00;57.90;;;;;;5051082;28;20444;-78
2021/06/22 12:28:30;;;;;;;4.80;3.37;;;19.10;57.30;;;;;;5049248;28;20553;-79
2021/06/22 12:30:57;;;;;;;6.03;3.40;;;19.10;57.30;;;;;;5043080;28;20954;-77
2021/06/22 12:33:30;;;;;;;5.20;4.13;;;19.20;57.10;;;;;;5046904;28;20495;-78
2021/06/22 12:36:18;;;;;;;10.00;2.90;;;19.20;57.70;;;;;;5039277;28;20479;-77
2021/06/22 12:38:49;;;;;;;5.93;4.30;;;19.30;58.40;;;;;;5048576;28;20413;-79
2021/06/22 12:41:15;;;;;;;6.60;3.83;;;19.30;58.30;;;;;;5039355;28;20498;-77
2021/06/22 12:43:48;;;;;;;5.70;2.93;;;19.30;58.40;;;;;;5027041;28;20467;-78
2021/06/22 12:46:26;;;;;;;9.00;4.40;;;19.30;58.40;;;;;;5024697;28;20493;-76
2021/06/22 12:48:56;;;;;;;4.97;4.13;;;19.30;58.80;;;;;;5039393;28;20436;-78
2021/06/22 12:51:23;;;;;;;8.50;3.50;;;19.30;58.80;;;;;;5035387;28;20981;-77
2021/06/22 12:53:50;;;;;;;3.87;3.00;;;19.30;59.00;;;;;;5024114;28;20476;-79
2021/06/22 12:56:20;;;;;;;6.67;3.63;;;19.20;58.70;;;;;;5039821;28;20452;-77
2021/06/22 12:58:49;;;;;;;6.57;4.27;;;19.20;58.80;;;;;;5034221;28;20424;-77
2021/06/22 13:01:26;;;;;;;7.93;3.53;;;19.10;59.80;;;;;;5039671;28;20443;-78